createdAt,value
2023-01-12T00:01:34.080Z,100773.11
2023-01-12T00:04:03.306Z,100775.41
2023-01-12T00:06:32.419Z,100779.50
2023-01-12T00:08:59.576Z,100784.73
2023-01-12T00:11:26.481Z,100793.91
2023-01-12T00:13:53.228Z,100802.77
2023-01-12T00:16:40.733Z,100790.30
2023-01-12T00:19:11.439Z,100801.85
2023-01-12T00:21:49.078Z,100797.10
2023-01-12T00:24:17.877Z,100795.78
2023-01-12T00:26:45.619Z,100798.96
2023-01-12T00:29:12.475Z,100806.60
2023-01-12T00:31:39.454Z,100809.27
2023-01-12T00:34:06.536Z,100805.90
2023-01-12T00:36:33.585Z,100802.17
2023-01-12T00:39:00.435Z,100804.70
2023-01-12T00:41:46.114Z,100803.99
2023-01-12T00:44:32.128Z,100808.30
2023-01-12T00:46:58.991Z,100812.55
2023-01-12T00:49:25.783Z,100804.20
2023-01-12T00:51:52.631Z,100804.30
2023-01-12T00:54:19.472Z,100787.72
2023-01-12T00:56:46.427Z,100783.70
2023-01-12T00:59:13.241Z,100784.64
2023-01-12T01:01:40.164Z,100780.68
2023-01-12T01:04:07.293Z,100776.84
2023-01-12T01:06:37.286Z,100780.09
2023-01-12T01:09:04.214Z,100785.86
2023-01-12T01:11:31.047Z,100789.19
2023-01-12T01:13:59.258Z,100796.63
2023-01-12T01:16:26.344Z,100797.41
2023-01-12T01:18:53.184Z,100796.10
2023-01-12T01:21:20.005Z,100802.71
2023-01-12T01:23:46.924Z,100808.80
2023-01-12T01:26:16.148Z,100815.70
2023-01-12T01:28:43.173Z,100813.95
2023-01-12T01:31:12.401Z,100808.61
2023-01-12T01:33:39.895Z,100820.80
2023-01-12T01:36:07.087Z,100817.79
2023-01-12T01:38:33.958Z,100827.67
2023-01-12T01:41:00.811Z,100828.92
2023-01-12T01:43:28.390Z,100821.95
2023-01-12T01:46:01.219Z,100820.81
2023-01-12T01:48:28.191Z,100826.66
2023-01-12T01:50:58.895Z,100828.69
2023-01-12T01:53:28.427Z,100829.48
2023-01-12T01:55:59.346Z,100828.99
2023-01-12T01:58:32.195Z,100827.14
2023-01-12T02:00:59.131Z,100832.15
2023-01-12T02:03:26.242Z,100833.25
2023-01-12T02:05:53.058Z,100838.86
2023-01-12T02:08:22.639Z,100839.83
2023-01-12T02:10:50.614Z,100835.13
2023-01-12T02:13:36.213Z,100835.86
2023-01-12T02:16:27.245Z,100826.40
2023-01-12T02:18:57.107Z,100831.26
2023-01-12T02:21:42.306Z,100835.05
2023-01-12T02:24:47.061Z,100834.80
2023-01-12T02:27:43.381Z,100838.38
2023-01-12T02:30:39.559Z,100834.77
2023-01-12T02:33:24.294Z,100825.88
2023-01-12T02:35:57.129Z,100833.30
2023-01-12T02:38:31.364Z,100823.54
2023-01-12T02:41:09.767Z,100820.30
2023-01-12T02:43:36.702Z,100818.09
2023-01-12T02:46:11.945Z,100820.55
2023-01-12T02:48:48.891Z,100817.13
2023-01-12T02:51:15.741Z,100822.89
2023-01-12T02:53:53.351Z,100815.72
2023-01-12T02:56:32.973Z,100814.76
2023-01-12T02:59:11.743Z,100807.94
2023-01-12T03:01:38.687Z,100804.23
2023-01-12T03:04:06.461Z,100804.16
2023-01-12T03:06:51.971Z,100802.55
2023-01-12T03:09:18.817Z,100808.67
2023-01-12T03:11:46.550Z,100803.21
2023-01-12T03:14:13.351Z,100795.05
2023-01-12T03:16:40.354Z,100796.19
2023-01-12T03:19:16.355Z,100796.98
2023-01-12T03:21:47.563Z,100802.92
2023-01-12T03:24:15.945Z,100794.14
2023-01-12T03:26:46.853Z,100786.30
2023-01-12T03:29:26.031Z,100775.39
2023-01-12T03:31:52.900Z,100769.62
2023-01-12T03:34:19.679Z,100768.41
2023-01-12T03:37:15.498Z,100768.08
2023-01-12T03:39:58.510Z,100760.69
2023-01-12T03:42:31.934Z,100760.56
2023-01-12T03:45:19.913Z,100759.17
2023-01-12T03:47:46.659Z,100761.09
2023-01-12T03:50:18.849Z,100753.52
2023-01-12T03:52:45.667Z,100752.92
2023-01-12T03:55:14.613Z,100745.48
2023-01-12T03:57:41.444Z,100744.44
2023-01-12T04:00:11.378Z,100753.77
2023-01-12T04:02:44.877Z,100751.14
2023-01-12T04:05:14.007Z,100752.11
2023-01-12T04:07:40.777Z,100744.30
2023-01-12T04:10:08.029Z,100738.59
2023-01-12T04:12:34.985Z,100735.86
2023-01-12T04:15:01.857Z,100736.60
2023-01-12T04:17:29.347Z,100738.81
2023-01-12T04:19:56.294Z,100738.25
2023-01-12T04:22:41.851Z,100736.05
2023-01-12T04:25:19.383Z,100736.73
2023-01-12T04:27:48.985Z,100732.87
2023-01-12T04:30:17.064Z,100725.96
2023-01-12T04:32:44.394Z,100721.48
2023-01-12T04:35:12.555Z,100723.23
2023-01-12T04:37:39.560Z,100728.17
2023-01-12T04:40:07.336Z,100725.29
2023-01-12T04:42:53.166Z,100723.45
2023-01-12T04:45:20.048Z,100715.80
2023-01-12T04:47:46.872Z,100714.23
2023-01-12T04:50:13.758Z,100710.30
2023-01-12T04:52:40.815Z,100709.61
2023-01-12T04:55:07.951Z,100711.20
2023-01-12T04:57:35.232Z,100711.20
2023-01-12T05:00:02.586Z,100709.42
2023-01-12T05:02:29.681Z,100713.17
2023-01-12T05:04:57.003Z,100708.77
2023-01-12T05:07:24.485Z,100710.14
2023-01-12T05:10:09.959Z,100719.55
2023-01-12T05:12:37.168Z,100721.15
2023-01-12T05:15:04.473Z,100726.84
2023-01-12T05:17:33.052Z,100722.38
2023-01-12T05:20:01.069Z,100718.66
2023-01-12T05:22:28.348Z,100723.16
2023-01-12T05:24:55.288Z,100710.48
2023-01-12T05:27:22.383Z,100710.46
2023-01-12T05:29:49.624Z,100706.59
2023-01-12T05:32:16.526Z,100706.70
2023-01-12T05:34:43.427Z,100706.84
2023-01-12T05:37:10.332Z,100702.34
2023-01-12T05:39:37.209Z,100704.61
2023-01-12T05:42:22.930Z,100708.20
2023-01-12T05:44:49.849Z,100697.56
2023-01-12T05:47:16.694Z,100703.45
2023-01-12T05:49:43.634Z,100700.70
2023-01-12T05:52:10.732Z,100705.27
2023-01-12T05:54:37.815Z,100705.35
2023-01-12T05:57:04.946Z,100708.52
2023-01-12T05:59:32.091Z,100709.52
2023-01-12T06:01:59.148Z,100710.30
2023-01-12T06:04:26.252Z,100710.64
2023-01-12T06:06:53.428Z,100711.23
2023-01-12T06:09:20.351Z,100714.73
2023-01-12T06:12:05.971Z,100715.04
2023-01-12T06:14:32.912Z,100710.30
2023-01-12T06:16:59.675Z,100704.61
2023-01-12T06:19:26.518Z,100713.24
2023-01-12T06:21:55.294Z,100710.22
2023-01-12T06:24:22.230Z,100707.55
2023-01-12T06:26:49.069Z,100704.30
2023-01-12T06:29:15.837Z,100698.27
2023-01-12T06:31:44.064Z,100695.23
2023-01-12T06:34:12.191Z,100704.19
2023-01-12T06:36:39.511Z,100706.65
2023-01-12T06:39:06.392Z,100700.92
2023-01-12T06:41:53.126Z,100700.42
2023-01-12T06:44:19.990Z,100703.32
2023-01-12T06:46:46.968Z,100693.36
2023-01-12T06:49:13.794Z,100690.80
2023-01-12T06:51:40.598Z,100686.52
2023-01-12T06:54:07.587Z,100685.04
2023-01-12T06:58:26.015Z,100686.86
2023-01-12T07:00:52.946Z,100684.92
2023-01-12T07:03:20.018Z,100687.34
2023-01-12T07:05:46.836Z,100692.10
2023-01-12T07:08:16.208Z,100700.84
2023-01-12T07:10:43.294Z,100703.58
2023-01-12T07:13:10.163Z,100711.88
2023-01-12T07:15:37.088Z,100715.98
2023-01-12T07:18:03.941Z,100711.60
2023-01-12T07:20:32.359Z,100719.50
2023-01-12T07:22:59.363Z,100715.58
2023-01-12T07:25:26.449Z,100714.86
2023-01-12T07:27:54.895Z,100710.73
2023-01-12T07:30:21.978Z,100709.58
2023-01-12T07:32:49.323Z,100709.54
2023-01-12T07:35:16.386Z,100703.52
2023-01-12T07:37:51.292Z,100692.73
2023-01-12T07:40:18.202Z,100701.64
2023-01-12T07:42:45.099Z,100700.36
2023-01-12T07:45:12.554Z,100694.94
2023-01-12T07:47:39.731Z,100695.75
2023-01-12T07:50:06.851Z,100701.30
2023-01-12T07:52:33.906Z,100696.99
2023-01-12T07:55:00.684Z,100700.55
2023-01-12T07:57:28.806Z,100701.49
2023-01-12T07:59:55.573Z,100703.61
2023-01-12T08:02:22.438Z,100704.28
2023-01-12T08:04:49.468Z,100702.89
2023-01-12T08:07:16.337Z,100697.98
2023-01-12T08:09:43.502Z,100701.10
2023-01-12T08:12:10.445Z,100690.26
2023-01-12T08:14:38.247Z,100695.15
2023-01-12T08:17:17.728Z,100695.41
2023-01-12T08:19:54.292Z,100699.98
2023-01-12T08:22:24.793Z,100703.31
2023-01-12T08:24:55.127Z,100701.09
2023-01-12T08:27:25.178Z,100702.75
2023-01-12T08:29:55.517Z,100703.61
2023-01-12T08:32:22.485Z,100693.88
2023-01-12T08:34:51.059Z,100701.21
2023-01-12T08:37:20.166Z,100694.41
2023-01-12T08:39:47.039Z,100701.42
2023-01-12T08:42:13.838Z,100692.16
2023-01-12T08:44:41.086Z,100681.69
2023-01-12T08:47:27.459Z,100683.86
2023-01-12T08:49:54.949Z,100676.41
2023-01-12T08:52:21.950Z,100672.09
2023-01-12T08:54:49.624Z,100672.96
2023-01-12T08:57:17.041Z,100670.38
2023-01-12T08:59:43.799Z,100665.77
2023-01-12T09:02:12.308Z,100668.41
2023-01-12T09:04:40.575Z,100665.33
2023-01-12T09:07:10.981Z,100666.76
2023-01-12T09:09:38.071Z,100666.78
2023-01-12T09:12:05.008Z,100663.44
2023-01-12T09:14:38.425Z,100658.42
2023-01-12T09:17:06.778Z,100664.47
2023-01-12T09:19:33.774Z,100668.36
2023-01-12T09:22:03.659Z,100662.89
2023-01-12T09:24:30.512Z,100660.41
2023-01-12T09:26:57.350Z,100659.84
2023-01-12T09:29:24.180Z,100660.58
2023-01-12T09:31:51.203Z,100670.75
2023-01-12T09:34:18.288Z,100667.00
2023-01-12T09:36:45.378Z,100673.14
2023-01-12T09:39:26.271Z,100676.81
2023-01-12T09:42:12.748Z,100674.09
2023-01-12T09:45:03.198Z,100678.45
2023-01-12T09:47:52.725Z,100671.73
2023-01-12T09:50:33.663Z,100667.41
2023-01-12T09:53:31.540Z,100667.59
2023-01-12T09:56:01.806Z,100667.50
2023-01-12T09:58:53.307Z,100666.31
2023-01-12T10:01:28.691Z,100666.09
2023-01-12T10:03:56.299Z,100664.45
2023-01-12T10:06:23.121Z,100660.23
2023-01-12T10:08:56.277Z,100662.33
2023-01-12T10:11:25.934Z,100662.37
2023-01-12T10:14:03.893Z,100661.95
2023-01-12T10:17:05.206Z,100661.27
2023-01-12T10:19:46.856Z,100654.70
2023-01-12T10:22:38.280Z,100653.13
2023-01-12T10:25:29.708Z,100640.96
2023-01-12T10:27:59.600Z,100644.21
2023-01-12T10:30:31.934Z,100636.83
2023-01-12T10:33:14.298Z,100633.89
2023-01-12T10:35:49.461Z,100635.73
2023-01-12T10:38:22.186Z,100632.64
2023-01-12T10:41:06.888Z,100632.31
2023-01-12T10:43:36.679Z,100625.73
2023-01-12T10:46:16.868Z,100625.83
2023-01-12T10:48:49.250Z,100626.55
2023-01-12T10:51:33.612Z,100620.06
2023-01-12T10:54:10.952Z,100621.26
2023-01-12T10:57:17.009Z,100617.51
2023-01-12T10:59:54.161Z,100618.45
2023-01-12T11:02:22.860Z,100622.06
2023-01-12T11:04:52.441Z,100619.59
2023-01-12T11:07:22.004Z,100625.67
2023-01-12T11:09:49.249Z,100628.41
2023-01-12T11:12:37.899Z,100626.17
2023-01-12T11:15:20.746Z,100630.35
2023-01-12T11:18:09.155Z,100624.96
2023-01-12T11:20:55.027Z,100631.63
2023-01-12T11:23:33.753Z,100629.90
2023-01-12T11:26:05.786Z,100627.31
2023-01-12T11:28:44.704Z,100631.19
2023-01-12T11:31:14.651Z,100624.27
2023-01-12T11:33:49.728Z,100615.36
2023-01-12T11:36:23.549Z,100615.30
2023-01-12T11:39:05.091Z,100617.21
2023-01-12T11:41:40.023Z,100613.13
2023-01-12T11:44:59.292Z,100605.55
2023-01-12T11:47:28.802Z,100609.55
2023-01-12T11:50:17.927Z,100611.05
2023-01-12T11:52:45.018Z,100602.55
2023-01-12T11:55:16.638Z,100598.58
2023-01-12T11:57:52.782Z,100600.77
2023-01-12T12:00:37.702Z,100596.05
2023-01-12T12:03:26.434Z,100599.30
2023-01-12T12:06:27.699Z,100586.45
2023-01-12T12:09:05.951Z,100588.29
2023-01-12T12:11:54.979Z,100582.33
2023-01-12T12:14:55.292Z,100584.22
2023-01-12T12:17:54.809Z,100580.60
2023-01-12T12:21:01.047Z,100581.29
2023-01-12T12:23:34.988Z,100578.06
2023-01-12T12:26:27.025Z,100580.09
2023-01-12T12:29:24.584Z,100583.36
2023-01-12T12:32:03.481Z,100574.15
2023-01-12T12:34:44.205Z,100573.93
2023-01-12T12:37:30.036Z,100569.76
2023-01-12T12:39:58.940Z,100564.66
2023-01-12T12:43:12.854Z,100572.57
2023-01-12T12:46:10.649Z,100572.77
2023-01-12T12:48:47.204Z,100578.05
2023-01-12T12:51:14.013Z,100580.48
2023-01-12T12:53:46.013Z,100580.47
2023-01-12T12:56:14.734Z,100581.31
2023-01-12T12:58:43.274Z,100590.27
2023-01-12T13:01:25.582Z,100584.41
2023-01-12T13:04:06.610Z,100589.29
2023-01-12T13:06:44.082Z,100587.95
2023-01-12T13:09:16.922Z,100583.77
2023-01-12T13:11:54.396Z,100585.64
2023-01-12T13:14:34.306Z,100582.80
2023-01-12T13:17:02.035Z,100575.59
2023-01-12T13:19:36.342Z,100574.27
2023-01-12T13:22:37.487Z,100579.89
2023-01-12T13:25:10.537Z,100587.75
2023-01-12T13:28:01.883Z,100585.70
2023-01-12T13:30:29.744Z,100585.33
2023-01-12T13:33:17.115Z,100584.32
2023-01-12T13:35:45.105Z,100587.95
2023-01-12T13:38:27.870Z,100591.08
2023-01-12T13:41:02.786Z,100591.23
2023-01-12T13:43:38.889Z,100587.67
2023-01-12T13:46:15.295Z,100583.53
2023-01-12T13:48:44.191Z,100579.35
2023-01-12T13:51:36.311Z,100585.10
2023-01-12T13:54:12.696Z,100583.81
2023-01-12T13:56:40.126Z,100582.48
2023-01-12T13:59:08.169Z,100580.39
2023-01-12T14:01:40.311Z,100582.10
2023-01-12T14:04:13.603Z,100579.48
2023-01-12T14:06:45.097Z,100583.09
2023-01-12T14:09:48.851Z,100582.02
2023-01-12T14:12:55.735Z,100590.53
2023-01-12T14:15:44.797Z,100596.08
2023-01-12T14:18:15.888Z,100596.39
2023-01-12T14:20:47.644Z,100597.48
2023-01-12T14:23:26.727Z,100595.17
2023-01-12T14:26:10.503Z,100597.58
2023-01-12T14:28:38.136Z,100602.61
2023-01-12T14:31:06.250Z,100602.58
2023-01-12T14:33:34.482Z,100601.83
2023-01-12T14:36:06.283Z,100597.63
2023-01-12T14:38:36.317Z,100600.27
2023-01-12T14:41:06.031Z,100604.98
2023-01-12T14:43:53.023Z,100605.48
2023-01-12T14:46:26.684Z,100600.70
2023-01-12T14:48:55.543Z,100592.46
2023-01-12T14:51:35.012Z,100598.77
2023-01-12T14:54:05.582Z,100603.55
2023-01-12T14:56:39.011Z,100605.23
2023-01-12T14:59:16.132Z,100602.38
2023-01-12T15:01:43.240Z,100608.77
2023-01-12T15:04:26.379Z,100603.23
2023-01-12T15:07:01.524Z,100606.38
2023-01-12T15:09:31.923Z,100604.37
2023-01-12T15:11:58.903Z,100602.92
2023-01-12T15:14:29.242Z,100605.34
2023-01-12T15:17:14.973Z,100604.04
2023-01-12T15:20:00.676Z,100605.41
2023-01-12T15:22:46.864Z,100605.98
2023-01-12T15:25:36.295Z,100615.90
2023-01-12T15:28:04.547Z,100612.27
2023-01-12T15:30:31.451Z,100610.38
2023-01-12T15:32:58.386Z,100611.51
2023-01-12T15:35:26.649Z,100612.45
2023-01-12T15:37:55.598Z,100613.70
2023-01-12T15:40:22.998Z,100616.47
2023-01-12T15:42:52.993Z,100617.54
2023-01-12T15:45:24.611Z,100616.02
2023-01-12T15:47:51.622Z,100613.93
2023-01-12T15:50:18.737Z,100607.40
2023-01-12T15:52:45.685Z,100608.12
2023-01-12T15:55:18.425Z,100607.82
2023-01-12T15:57:45.514Z,100607.88
2023-01-12T16:00:17.192Z,100599.77
2023-01-12T16:02:49.917Z,100599.23
2023-01-12T16:05:18.958Z,100595.42
2023-01-12T16:07:48.415Z,100590.31
2023-01-12T16:10:18.711Z,100591.97
2023-01-12T16:12:48.139Z,100600.06
2023-01-12T16:15:20.523Z,100602.23
2023-01-12T16:17:47.642Z,100598.70
2023-01-12T16:20:16.494Z,100598.62
2023-01-12T16:22:44.334Z,100601.06
2023-01-12T16:25:11.470Z,100598.55
2023-01-12T16:27:38.779Z,100594.49
2023-01-12T16:30:07.429Z,100587.46
2023-01-12T16:32:34.546Z,100588.81
2023-01-12T16:35:01.901Z,100593.40
2023-01-12T16:37:34.506Z,100592.09
2023-01-12T16:40:01.932Z,100583.82
2023-01-12T16:42:29.346Z,100580.21
2023-01-12T16:44:56.626Z,100578.08
2023-01-12T16:47:24.723Z,100572.58
2023-01-12T16:49:51.916Z,100572.45
2023-01-12T16:52:20.326Z,100571.40
2023-01-12T16:54:47.417Z,100570.95
2023-01-12T16:57:15.650Z,100567.54
2023-01-12T16:59:42.973Z,100567.74
2023-01-12T17:02:16.767Z,100562.52
2023-01-12T17:04:45.016Z,100564.30
2023-01-12T17:07:12.019Z,100568.09
2023-01-12T17:09:39.489Z,100564.65
2023-01-12T17:12:06.880Z,100561.54
2023-01-12T17:14:34.773Z,100558.55
2023-01-12T17:17:04.859Z,100557.59
2023-01-12T17:19:33.518Z,100555.05
2023-01-12T17:22:02.247Z,100554.23
2023-01-12T17:24:30.390Z,100561.46
2023-01-12T17:26:57.659Z,100564.25
2023-01-12T17:29:25.805Z,100555.02
2023-01-12T17:31:53.872Z,100555.79
2023-01-12T17:34:22.346Z,100562.46
2023-01-12T17:36:49.166Z,100560.27
2023-01-12T17:39:16.018Z,100561.23
2023-01-12T17:42:01.701Z,100560.39
2023-01-12T17:44:28.677Z,100558.91
2023-01-12T17:46:55.427Z,100555.58
2023-01-12T17:49:22.765Z,100557.68
2023-01-12T17:51:50.831Z,100556.67
2023-01-12T17:54:18.951Z,100555.27
2023-01-12T17:56:45.952Z,100556.27
2023-01-12T17:59:17.252Z,100559.72
2023-01-12T18:01:44.355Z,100565.63
2023-01-12T18:04:11.430Z,100559.81
2023-01-12T18:06:38.535Z,100555.78
2023-01-12T18:09:06.383Z,100550.65
2023-01-12T18:11:33.598Z,100552.27
2023-01-12T18:14:01.289Z,100560.84
2023-01-12T18:16:28.553Z,100558.99
2023-01-12T18:18:55.651Z,100560.81
2023-01-12T18:21:24.100Z,100560.21
2023-01-12T18:23:51.623Z,100557.50
2023-01-12T18:26:25.490Z,100555.38
2023-01-12T18:28:54.256Z,100550.61
2023-01-12T18:31:23.554Z,100545.06
2023-01-12T18:33:54.063Z,100542.04
2023-01-12T18:36:24.743Z,100538.98
2023-01-12T18:38:54.178Z,100542.70
2023-01-12T18:41:41.953Z,100547.44
2023-01-12T18:44:09.195Z,100548.78
2023-01-12T18:47:02.261Z,100550.29
2023-01-12T18:49:33.842Z,100550.27
2023-01-12T18:52:20.098Z,100541.01
2023-01-12T18:54:48.376Z,100539.71
2023-01-12T18:57:19.273Z,100537.45
2023-01-12T18:59:47.138Z,100538.02
2023-01-12T19:02:14.954Z,100548.88
2023-01-12T19:04:50.930Z,100552.58
2023-01-12T19:07:46.823Z,100551.93
2023-01-12T19:10:14.488Z,100549.59
2023-01-12T19:12:46.088Z,100548.41
2023-01-12T19:16:58.223Z,100550.48
2023-01-12T19:19:27.298Z,100550.85
2023-01-12T19:22:13.237Z,100559.95
2023-01-12T19:24:58.819Z,100557.75
2023-01-12T19:27:44.449Z,100555.84
2023-01-12T19:30:12.005Z,100545.00
2023-01-12T19:32:39.213Z,100551.95
2023-01-12T19:35:11.179Z,100542.05
2023-01-12T19:37:39.907Z,100546.39
2023-01-12T19:40:18.012Z,100535.57
2023-01-12T19:43:03.670Z,100535.88
2023-01-12T19:45:30.837Z,100540.41
2023-01-12T19:47:57.749Z,100543.42
2023-01-12T19:50:24.833Z,100548.77
2023-01-12T19:52:52.232Z,100549.23
2023-01-12T19:55:19.268Z,100546.82
2023-01-12T19:57:46.832Z,100549.62
2023-01-12T20:00:15.258Z,100552.29
2023-01-12T20:02:45.605Z,100551.98
2023-01-12T20:05:13.701Z,100554.05
2023-01-12T20:07:40.745Z,100553.25
2023-01-12T20:10:09.168Z,100555.54
2023-01-12T20:12:37.529Z,100554.61
2023-01-12T20:15:04.789Z,100555.63
2023-01-12T20:17:31.605Z,100551.41
2023-01-12T20:19:58.592Z,100547.08
2023-01-12T20:22:25.413Z,100541.58
2023-01-12T20:24:52.326Z,100551.41
2023-01-12T20:27:19.428Z,100550.17
2023-01-12T20:29:46.356Z,100544.77
2023-01-12T20:32:13.221Z,100545.19
2023-01-12T20:34:40.299Z,100552.49
2023-01-12T20:37:07.224Z,100548.84
2023-01-12T20:39:34.790Z,100555.20
2023-01-12T20:42:03.349Z,100551.60
2023-01-12T20:44:30.596Z,100557.44
2023-01-12T20:46:57.684Z,100553.66
2023-01-12T20:49:24.682Z,100554.15
2023-01-12T20:51:52.805Z,100554.83
2023-01-12T20:54:20.421Z,100550.36
2023-01-12T20:56:47.435Z,100545.54
2023-01-12T20:59:15.406Z,100547.72
2023-01-12T21:01:42.451Z,100547.14
2023-01-12T21:04:09.401Z,100559.64
2023-01-12T21:06:36.617Z,100564.96
2023-01-12T21:09:04.612Z,100566.77
2023-01-12T21:11:31.645Z,100579.77
2023-01-12T21:13:58.498Z,100578.62
2023-01-12T21:16:25.743Z,100580.35
2023-01-12T21:18:52.764Z,100578.11
2023-01-12T21:21:19.538Z,100582.06
2023-01-12T21:23:46.424Z,100574.79
2023-01-12T21:26:13.270Z,100581.01
2023-01-12T21:28:40.335Z,100576.98
2023-01-12T21:31:08.592Z,100575.30
2023-01-12T21:33:35.651Z,100582.77
2023-01-12T21:36:02.506Z,100585.93
2023-01-12T21:38:29.438Z,100573.70
2023-01-12T21:41:01.318Z,100575.77
2023-01-12T21:43:28.175Z,100576.42
2023-01-12T21:45:55.430Z,100573.38
2023-01-12T21:48:22.725Z,100562.38
2023-01-12T21:50:49.674Z,100557.45
2023-01-12T21:53:18.990Z,100560.89
2023-01-12T21:55:56.673Z,100555.41
2023-01-12T21:58:24.503Z,100555.86
2023-01-12T22:00:51.434Z,100555.63
2023-01-12T22:03:18.300Z,100555.45
2023-01-12T22:05:46.461Z,100556.09
2023-01-12T22:08:13.514Z,100553.20
2023-01-12T22:10:40.376Z,100550.86
2023-01-12T22:13:10.209Z,100541.34
2023-01-12T22:15:37.124Z,100532.12
2023-01-12T22:18:04.516Z,100533.59
2023-01-12T22:20:31.255Z,100530.37
2023-01-12T22:22:58.091Z,100529.28
2023-01-12T22:25:24.954Z,100521.61
2023-01-12T22:27:51.940Z,100520.89
2023-01-12T22:30:22.095Z,100515.04
2023-01-12T22:32:49.018Z,100507.95
2023-01-12T22:35:15.961Z,100509.95
2023-01-12T22:37:42.676Z,100518.17
2023-01-12T22:40:10.711Z,100517.73
2023-01-12T22:42:56.413Z,100525.60
2023-01-12T22:45:23.262Z,100530.60
2023-01-12T22:47:54.110Z,100535.65
2023-01-12T22:50:21.318Z,100530.35
2023-01-12T22:52:52.906Z,100526.83
2023-01-12T22:55:23.774Z,100525.58
2023-01-12T22:57:50.522Z,100534.98
2023-01-12T23:00:18.109Z,100530.21
2023-01-12T23:03:00.311Z,100531.55
2023-01-12T23:05:36.252Z,100527.92
2023-01-12T23:08:04.414Z,100522.23
2023-01-12T23:10:31.364Z,100521.26
2023-01-12T23:13:17.842Z,100522.67
2023-01-12T23:15:53.533Z,100516.03
2023-01-12T23:18:22.204Z,100514.39
2023-01-12T23:20:49.458Z,100510.73
2023-01-12T23:23:18.262Z,100509.08
2023-01-12T23:25:46.032Z,100505.91
2023-01-12T23:28:13.279Z,100507.30
2023-01-12T23:30:40.404Z,100498.71
2023-01-12T23:33:07.250Z,100496.06
2023-01-12T23:35:39.419Z,100488.54
2023-01-12T23:38:07.216Z,100496.40
2023-01-12T23:40:34.087Z,100496.34
2023-01-12T23:43:01.683Z,100497.29
2023-01-12T23:45:29.225Z,100506.97
2023-01-12T23:47:56.105Z,100507.84
2023-01-12T23:50:23.044Z,100508.92
2023-01-12T23:52:52.736Z,100511.14
2023-01-12T23:55:19.637Z,100513.71
2023-01-12T23:57:48.013Z,100507.98
